Milroy, Minnesota
Current Conditions -  °F | °C
As of 12:32 AM on Thursday 23 Oct 2014 (Local Time) from KTKC Reporting Station
Scattered Clouds Scattered Clouds  
Wind Chill: 56°   Ceiling: Unl
Heat Index: 56°   Visibility: 10mi
Dew Point: 54°   Wind: 6mph
Humidity: 92%   Direction: 240°WSW
Pressure: 29.99"   Gusts: NA
Location:  44.42°N, 95.55°W
Report Text: KTKC 230532Z AUTO 24005KT 10SM SCT039 SCT060 SCT070 14/12 A2999 RMK AO2 T01350123
Loading
Personal Weather Stations






























Interactive Weather Map
Tropical Storm Tracking
New forecast layout! Learn more

10-Day Weather Forecast

Advertisements
Track Severe Weather on mobile